Time;durP1;ratioP1;P1;durP2;ratioP2;P2;SDS_P1;SDS_P2;PMS_P1;PMS_P2;Temp;Humidity;BMP_temperature;BMP_pressure;BME280_temperature;BME280_humidity;BME280_pressure;Samples;Min_cycle;Max_cycle;Signal;HPM_P1;HPM_P2
2022/02/16 00:02:54;;;;;;;8.70;4.35;;;9.40;59.90;;;;;;6177890;28;20097;-70
2022/02/16 00:05:55;;;;;;;9.45;3.58;;;9.40;59.90;;;;;;6196703;28;20109;-71
2022/02/16 00:08:56;;;;;;;8.60;4.10;;;9.40;60.00;;;;;;6189318;28;20026;-71
2022/02/16 00:11:57;;;;;;;12.25;4.20;;;9.40;60.10;;;;;;6197161;28;20038;-68
2022/02/16 00:14:58;;;;;;;11.13;4.43;;;9.40;60.10;;;;;;6211367;28;20043;-71
2022/02/16 00:17:59;;;;;;;16.52;4.82;;;9.30;60.10;;;;;;6195887;28;20046;-69
2022/02/16 00:21:00;;;;;;;9.38;4.85;;;9.30;60.20;;;;;;6203880;28;20099;-71
2022/02/16 00:24:04;;;;;;;9.50;4.13;;;9.30;60.10;;;;;;6236107;28;20033;-69
2022/02/16 00:27:05;;;;;;;8.50;4.20;;;9.30;60.20;;;;;;6235017;28;21527;-70
2022/02/16 00:30:07;;;;;;;11.00;4.28;;;9.30;60.30;;;;;;6209272;28;20042;-70
2022/02/16 00:33:08;;;;;;;7.40;4.07;;;9.20;60.50;;;;;;6188280;28;20096;-69
2022/02/16 00:36:09;;;;;;;8.07;4.13;;;9.30;60.50;;;;;;6194954;28;20038;-70
2022/02/16 00:39:44;;;;;;;8.70;4.20;;;9.30;60.40;;;;;;6194200;28;20185;-70
2022/02/16 00:42:45;;;;;;;12.68;4.80;;;9.20;60.40;;;;;;6218344;28;20030;-70
2022/02/16 00:45:46;;;;;;;6.82;3.88;;;9.20;60.50;;;;;;6219812;28;20038;-69
2022/02/16 00:48:47;;;;;;;10.43;4.75;;;9.10;60.50;;;;;;6218147;28;20045;-69
2022/02/16 00:51:51;;;;;;;9.25;4.78;;;9.10;60.50;;;;;;6235377;28;20466;-71
2022/02/16 00:54:54;;;;;;;10.68;5.03;;;9.20;60.70;;;;;;6218301;28;20355;-71
2022/02/16 00:57:55;;;;;;;13.35;5.20;;;9.20;60.70;;;;;;6220060;28;20034;-69
2022/02/16 01:00:59;;;;;;;11.80;5.10;;;9.20;60.70;;;;;;6202313;28;20034;-69
2022/02/16 01:04:00;;;;;;;11.73;5.55;;;9.20;60.90;;;;;;6215715;28;20127;-70
2022/02/16 01:07:01;;;;;;;11.18;5.65;;;9.20;61.10;;;;;;6219140;28;20044;-69
2022/02/16 01:10:05;;;;;;;13.88;5.10;;;9.10;61.20;;;;;;6218849;28;20096;-70
2022/02/16 01:13:06;;;;;;;15.38;5.47;;;9.10;61.30;;;;;;6199298;28;20029;-69
2022/02/16 01:16:10;;;;;;;10.27;5.10;;;9.10;61.50;;;;;;6225327;28;20045;-69
2022/02/16 01:19:37;;;;;;;15.20;6.00;;;9.10;61.60;;;;;;6224669;28;20038;-69
2022/02/16 01:22:40;;;;;;;8.43;4.38;;;9.10;61.60;;;;;;6224215;28;20482;-70
2022/02/16 01:25:48;;;;;;;10.25;5.25;;;9.10;61.50;;;;;;6224055;28;20367;-70
2022/02/16 01:29:17;;;;;;;10.45;4.50;;;9.10;61.60;;;;;;6223354;28;20030;-70
2022/02/16 01:32:27;;;;;;;12.10;4.80;;;9.10;61.60;;;;;;6201419;28;20034;-70
2022/02/16 01:35:28;;;;;;;11.88;5.05;;;9.10;61.60;;;;;;6199043;28;20089;-70
2022/02/16 01:38:29;;;;;;;13.73;5.43;;;9.10;61.40;;;;;;6198954;28;20034;-70
2022/02/16 01:41:55;;;;;;;8.32;4.88;;;9.10;61.50;;;;;;6166987;28;20126;-70
2022/02/16 01:44:56;;;;;;;10.65;4.35;;;9.10;61.30;;;;;;6166851;28;20043;-70
2022/02/16 01:47:58;;;;;;;9.52;5.00;;;9.10;61.30;;;;;;6134601;28;20426;-70
2022/02/16 01:51:00;;;;;;;10.55;4.50;;;9.20;61.10;;;;;;6149444;28;20413;-70
2022/02/16 01:54:13;;;;;;;12.35;4.80;;;9.10;60.80;;;;;;6134367;28;20049;-70
2022/02/16 01:57:14;;;;;;;9.88;4.13;;;9.10;60.80;;;;;;6150648;28;20031;-69
2022/02/16 02:00:20;;;;;;;6.65;4.05;;;9.10;60.80;;;;;;6141046;28;20049;-70
2022/02/16 02:03:25;;;;;;;13.48;4.80;;;9.20;60.90;;;;;;6173567;28;20035;-69
2022/02/16 02:06:32;;;;;;;12.02;4.38;;;9.20;60.90;;;;;;6142717;28;20046;-69
2022/02/16 02:09:35;;;;;;;10.93;4.60;;;9.20;60.70;;;;;;6160195;28;20447;-70
2022/02/16 02:12:47;;;;;;;9.45;4.95;;;9.20;60.70;;;;;;6184063;28;20470;-70
2022/02/16 02:15:50;;;;;;;7.93;4.32;;;9.20;60.90;;;;;;6223143;28;20430;-69
2022/02/16 02:19:29;;;;;;;10.23;4.53;;;9.20;60.90;;;;;;6203582;28;20047;-70
2022/02/16 02:22:33;;;;;;;10.90;5.00;;;9.20;61.10;;;;;;6174409;28;20085;-70
2022/02/16 02:25:47;;;;;;;11.15;4.55;;;9.20;61.00;;;;;;6174299;28;20422;-69
2022/02/16 02:28:49;;;;;;;9.25;4.47;;;9.20;61.10;;;;;;6171534;28;20045;-70
2022/02/16 02:31:50;;;;;;;9.48;4.63;;;9.20;61.10;;;;;;6172839;28;20039;-70
2022/02/16 02:34:52;;;;;;;7.47;3.85;;;9.20;61.30;;;;;;6174778;28;20468;-70
2022/02/16 02:37:53;;;;;;;12.45;4.57;;;9.20;61.30;;;;;;6174620;28;20075;-70
2022/02/16 02:40:56;;;;;;;12.43;4.40;;;9.20;61.30;;;;;;6166321;28;20112;-70
2022/02/16 02:43:59;;;;;;;8.65;3.53;;;9.10;61.30;;;;;;6149066;28;20560;-70
2022/02/16 02:47:01;;;;;;;12.88;5.10;;;9.10;61.30;;;;;;6166398;28;20039;-70
2022/02/16 02:50:06;;;;;;;7.55;4.22;;;9.10;61.40;;;;;;6150572;28;20039;-69
2022/02/16 02:53:07;;;;;;;11.85;4.18;;;9.10;61.60;;;;;;6150514;28;20050;-70
2022/02/16 02:56:08;;;;;;;12.10;4.20;;;9.10;61.70;;;;;;6150282;28;20088;-70
2022/02/16 02:59:19;;;;;;;10.15;3.95;;;9.10;61.50;;;;;;6151551;28;20047;-70
2022/02/16 03:02:25;;;;;;;7.97;4.20;;;9.00;61.40;;;;;;6174872;28;20407;-69
2022/02/16 03:05:26;;;;;;;18.55;4.78;;;8.90;61.40;;;;;;6175906;28;20099;-69
2022/02/16 03:08:27;;;;;;;12.55;4.68;;;8.90;61.60;;;;;;6171929;28;20058;-70
2022/02/16 03:11:28;;;;;;;11.43;4.55;;;8.90;61.60;;;;;;6176407;28;20114;-70
2022/02/16 03:14:29;;;;;;;9.85;3.85;;;8.80;61.60;;;;;;6157935;28;20122;-70
2022/02/16 03:17:31;;;;;;;8.43;3.83;;;8.80;61.60;;;;;;6191226;28;20068;-70
2022/02/16 03:20:32;;;;;;;10.75;4.82;;;8.80;61.80;;;;;;6192064;28;20058;-70
2022/02/16 03:23:33;;;;;;;10.60;4.35;;;8.80;61.80;;;;;;6223231;28;20042;-70
2022/02/16 03:26:35;;;;;;;12.75;3.97;;;8.90;61.80;;;;;;6206828;28;20045;-70
2022/02/16 03:29:36;;;;;;;10.15;3.88;;;8.90;61.80;;;;;;6206755;28;20483;-70
2022/02/16 03:32:37;;;;;;;10.35;3.90;;;8.90;61.70;;;;;;6222231;28;20037;-69
2022/02/16 03:35:39;;;;;;;7.40;4.03;;;8.90;61.60;;;;;;6215165;28;20482;-70
2022/02/16 03:39:12;;;;;;;9.02;4.15;;;8.90;61.90;;;;;;6198526;28;20041;-70
2022/02/16 03:42:14;;;;;;;11.75;4.40;;;8.80;61.90;;;;;;6195353;28;20483;-70
2022/02/16 03:45:16;;;;;;;7.55;3.85;;;8.80;62.00;;;;;;6196063;28;20034;-69
2022/02/16 03:48:26;;;;;;;13.30;4.03;;;8.80;61.80;;;;;;6195969;28;20367;-69
2022/02/16 03:51:28;;;;;;;7.90;3.97;;;8.80;62.00;;;;;;6195909;28;20027;-70
2022/02/16 03:54:29;;;;;;;10.38;4.20;;;8.80;62.00;;;;;;6195824;28;20349;-70
2022/02/16 03:57:30;;;;;;;8.48;3.65;;;8.80;62.00;;;;;;6195929;28;20030;-71
2022/02/16 04:00:31;;;;;;;8.38;4.13;;;8.80;62.00;;;;;;6204725;28;20108;-71
2022/02/16 04:03:33;;;;;;;7.05;3.95;;;8.80;61.90;;;;;;6213545;28;20048;-71
2022/02/16 04:06:34;;;;;;;9.02;4.10;;;8.80;61.80;;;;;;6203387;28;20459;-71
2022/02/16 04:09:35;;;;;;;9.07;3.95;;;8.80;61.80;;;;;;6219740;28;20048;-69
2022/02/16 04:12:36;;;;;;;10.85;4.38;;;8.80;61.80;;;;;;6219884;28;20034;-69
2022/02/16 04:15:37;;;;;;;10.40;4.45;;;8.80;61.80;;;;;;6219813;28;20034;-70
2022/02/16 04:19:05;;;;;;;9.70;4.13;;;8.80;61.70;;;;;;6235449;28;20455;-69
2022/02/16 04:22:07;;;;;;;25.13;13.00;;;8.80;61.70;;;;;;6219799;28;20049;-70
2022/02/16 04:25:08;;;;;;;22.17;11.50;;;8.80;61.60;;;;;;6219442;28;20040;-69
2022/02/16 04:28:10;;;;;;;21.67;8.48;;;8.90;61.60;;;;;;6200130;28;20033;-69
2022/02/16 04:31:11;;;;;;;12.20;6.13;;;8.90;61.50;;;;;;6219456;28;20037;-70
2022/02/16 04:34:12;;;;;;;8.13;4.50;;;8.90;61.30;;;;;;6217306;28;20034;-70
2022/02/16 04:37:13;;;;;;;11.18;5.60;;;8.90;61.20;;;;;;6219428;28;20046;-70
2022/02/16 04:40:16;;;;;;;9.73;4.78;;;8.90;61.30;;;;;;6218142;28;20107;-70
2022/02/16 04:43:17;;;;;;;8.95;4.90;;;8.90;61.30;;;;;;6235841;28;20053;-69
2022/02/16 04:46:19;;;;;;;12.63;4.97;;;8.90;61.40;;;;;;6217933;28;20045;-69
2022/02/16 04:49:20;;;;;;;11.30;4.63;;;8.80;61.50;;;;;;6201523;28;20034;-69
2022/02/16 04:52:21;;;;;;;11.73;5.05;;;8.80;61.70;;;;;;6235384;28;20367;-69
2022/02/16 04:55:24;;;;;;;9.98;4.72;;;8.80;61.80;;;;;;6219013;28;20434;-69
2022/02/16 04:58:59;;;;;;;14.73;5.25;;;8.80;62.00;;;;;;6204748;28;20421;-69
2022/02/16 05:02:00;;;;;;;15.02;5.18;;;8.80;62.10;;;;;;6220040;28;20033;-70
2022/02/16 05:05:01;;;;;;;9.00;4.72;;;8.80;62.20;;;;;;6220038;28;20459;-70
2022/02/16 05:08:03;;;;;;;7.07;4.38;;;8.80;62.10;;;;;;6220067;28;20084;-70
2022/02/16 05:11:04;;;;;;;8.95;4.32;;;8.80;62.00;;;;;;6220181;28;20042;-70
2022/02/16 05:14:24;;;;;;;14.57;5.05;;;8.80;61.80;;;;;;6219602;28;20124;-70
2022/02/16 05:17:28;;;;;;;10.27;4.30;;;8.80;61.80;;;;;;6222106;28;20071;-69
2022/02/16 05:20:28;;;;;;;9.80;3.83;;;8.80;61.80;;;;;;6219541;28;20053;-69
2022/02/16 05:23:29;;;;;;;5.93;3.25;;;8.80;61.80;;;;;;6219695;28;20416;-69
2022/02/16 05:26:38;;;;;;;8.80;4.70;;;8.80;61.90;;;;;;6219611;28;20042;-69
2022/02/16 05:29:40;;;;;;;7.75;3.85;;;8.90;62.00;;;;;;6220009;28;20042;-70
2022/02/16 05:32:46;;;;;;;10.07;5.00;;;9.00;62.10;;;;;;6200748;28;20048;-70
2022/02/16 05:35:48;;;;;;;11.18;5.03;;;9.00;61.90;;;;;;6236282;28;20104;-70
2022/02/16 05:38:50;;;;;;;12.60;4.95;;;9.10;62.00;;;;;;6220019;28;20034;-70
2022/02/16 05:41:51;;;;;;;11.02;3.92;;;9.10;62.00;;;;;;6234837;28;20056;-70
2022/02/16 05:44:53;;;;;;;10.25;3.90;;;9.20;62.00;;;;;;6198697;28;20034;-69
2022/02/16 05:47:54;;;;;;;5.47;2.75;;;9.20;62.00;;;;;;6195026;28;20092;-69
2022/02/16 05:50:55;;;;;;;8.73;3.80;;;9.20;61.80;;;;;;6179128;28;20035;-70
2022/02/16 05:53:56;;;;;;;11.75;3.60;;;9.20;61.70;;;;;;6178914;28;20072;-70
2022/02/16 05:56:59;;;;;;;5.88;3.25;;;9.30;61.70;;;;;;6211505;28;20467;-71
2022/02/16 05:59:59;;;;;;;10.43;4.18;;;9.30;61.70;;;;;;6222940;28;20045;-69
2022/02/16 06:03:00;;;;;;;10.38;4.47;;;9.30;61.70;;;;;;6224262;28;20034;-70
2022/02/16 06:06:01;;;;;;;12.23;4.53;;;9.30;61.80;;;;;;6208922;28;20026;-69
2022/02/16 06:09:02;;;;;;;9.52;4.30;;;9.30;61.80;;;;;;6221801;28;20072;-69
2022/02/16 06:12:04;;;;;;;10.30;3.83;;;9.30;61.90;;;;;;6225092;28;20034;-69
2022/02/16 06:15:06;;;;;;;9.68;3.97;;;9.30;62.10;;;;;;6223993;28;20034;-70
2022/02/16 06:18:41;;;;;;;8.20;3.75;;;9.30;62.10;;;;;;6226182;28;20034;-69
2022/02/16 06:21:44;;;;;;;6.53;3.42;;;9.30;62.20;;;;;;6238642;28;20049;-71
2022/02/16 06:24:45;;;;;;;10.30;3.92;;;9.20;62.30;;;;;;6223718;28;20083;-71
2022/02/16 06:27:47;;;;;;;6.65;3.15;;;9.10;62.50;;;;;;6207313;28;20050;-71
2022/02/16 06:30:48;;;;;;;6.97;3.58;;;9.10;62.80;;;;;;6222980;28;20045;-71
2022/02/16 06:33:51;;;;;;;6.30;3.40;;;9.10;63.10;;;;;;6218733;28;20049;-72
2022/02/16 06:36:54;;;;;;;7.43;3.72;;;9.00;63.20;;;;;;6236198;28;20045;-71
2022/02/16 06:39:56;;;;;;;9.70;5.25;;;9.10;64.20;;;;;;6222232;28;20038;-71
2022/02/16 06:43:00;;;;;;;5.35;3.45;;;9.10;63.50;;;;;;6239193;28;20092;-71
2022/02/16 06:46:02;;;;;;;9.35;4.10;;;9.10;63.50;;;;;;6222592;28;20048;-70
2022/02/16 06:49:03;;;;;;;8.88;4.15;;;9.10;63.30;;;;;;6222658;28;20037;-70
2022/02/16 06:52:06;;;;;;;9.32;3.50;;;9.10;63.30;;;;;;6222390;28;20038;-70
2022/02/16 06:55:07;;;;;;;8.18;3.25;;;9.10;63.20;;;;;;6239175;28;20045;-70
2022/02/16 06:58:33;;;;;;;9.13;3.15;;;9.10;63.00;;;;;;6206202;28;20116;-70
2022/02/16 07:01:34;;;;;;;8.88;3.70;;;9.00;63.10;;;;;;6236045;28;20046;-70
2022/02/16 07:04:35;;;;;;;7.45;2.63;;;9.10;63.20;;;;;;6221482;28;20061;-70
2022/02/16 07:07:37;;;;;;;10.07;3.67;;;9.10;63.10;;;;;;6237373;28;20046;-70
2022/02/16 07:10:37;;;;;;;8.73;3.25;;;9.10;63.00;;;;;;6237101;28;20045;-70
2022/02/16 07:13:38;;;;;;;7.65;3.28;;;9.10;63.10;;;;;;6183808;28;20100;-70
2022/02/16 07:16:41;;;;;;;8.15;3.25;;;9.20;63.30;;;;;;6195919;28;20038;-70
2022/02/16 07:19:42;;;;;;;5.78;2.97;;;9.20;63.40;;;;;;6195328;28;20035;-70
2022/02/16 07:22:57;;;;;;;4.75;2.63;;;9.20;63.30;;;;;;6170403;28;20496;-72
2022/02/16 07:25:58;;;;;;;7.35;2.22;;;9.30;63.20;;;;;;6196101;28;20042;-71
2022/02/16 07:29:05;;;;;;;3.95;2.13;;;9.30;62.90;;;;;;6194606;28;20042;-70
2022/02/16 07:32:07;;;;;;;6.28;2.30;;;9.30;62.80;;;;;;6200023;28;20436;-70
2022/02/16 07:35:12;;;;;;;3.75;2.35;;;9.30;62.60;;;;;;6203846;28;20121;-70
2022/02/16 07:38:31;;;;;;;5.88;2.83;;;9.30;62.40;;;;;;6219749;28;20121;-71
2022/02/16 07:41:33;;;;;;;3.25;2.20;;;9.30;62.40;;;;;;6219992;28;20038;-70
2022/02/16 07:45:04;;;;;;;5.50;2.53;;;9.30;62.40;;;;;;6218323;28;20030;-71
2022/02/16 07:48:05;;;;;;;8.15;3.22;;;9.30;62.50;;;;;;6202792;28;20058;-71
2022/02/16 07:51:08;;;;;;;7.53;3.33;;;9.30;62.80;;;;;;6216261;28;20041;-70
2022/02/16 07:54:40;;;;;;;7.05;3.22;;;9.40;62.80;;;;;;6168843;28;20149;-71
2022/02/16 07:58:27;;;;;;;7.32;2.67;;;9.40;62.60;;;;;;6139523;28;20110;-70
2022/02/16 08:01:29;;;;;;;6.97;2.90;;;9.40;62.80;;;;;;6137629;28;20046;-71
2022/02/16 08:04:30;;;;;;;16.15;3.30;;;9.40;62.80;;;;;;6154342;28;20039;-71
2022/02/16 08:07:34;;;;;;;6.18;2.80;;;9.40;62.80;;;;;;6154553;28;20034;-70
2022/02/16 08:10:35;;;;;;;6.32;2.80;;;9.40;62.90;;;;;;6138568;28;20436;-70
2022/02/16 08:13:37;;;;;;;13.63;3.67;;;9.40;62.90;;;;;;6154314;28;20534;-71
2022/02/16 08:17:10;;;;;;;9.57;2.50;;;9.40;62.90;;;;;;6097251;29;20436;-70
2022/02/16 08:20:13;;;;;;;6.45;3.38;;;9.40;62.90;;;;;;6097451;29;20047;-70
2022/02/16 08:23:46;;;;;;;18.30;4.43;;;9.40;63.10;;;;;;6003947;29;20100;-71
2022/02/16 08:26:47;;;;;;;10.55;4.57;;;9.40;63.50;;;;;;5989968;29;20512;-71
2022/02/16 08:29:50;;;;;;;10.18;4.60;;;9.40;63.90;;;;;;5983004;29;20044;-70
2022/02/16 08:33:01;;;;;;;11.80;4.70;;;9.40;64.30;;;;;;6053831;29;20057;-70
2022/02/16 08:36:07;;;;;;;7.22;3.60;;;9.40;64.50;;;;;;6050833;29;20133;-71
2022/02/16 08:39:09;;;;;;;11.57;4.28;;;9.40;64.70;;;;;;6041315;29;20091;-71
2022/02/16 08:42:10;;;;;;;9.05;3.38;;;9.30;64.80;;;;;;6073239;29;20048;-71
2022/02/16 08:45:11;;;;;;;8.65;3.38;;;9.30;65.00;;;;;;6074124;29;20036;-69
2022/02/16 08:48:12;;;;;;;8.50;3.10;;;9.30;65.10;;;;;;6074253;29;20037;-72
2022/02/16 08:51:12;;;;;;;8.38;2.97;;;9.30;65.40;;;;;;6064189;28;20052;-70
2022/02/16 08:54:18;;;;;;;6.22;3.22;;;9.30;65.50;;;;;;6128759;28;20036;-70
2022/02/16 08:57:21;;;;;;;7.70;4.22;;;9.20;66.30;;;;;;6144110;28;20103;-70
2022/02/16 09:00:22;;;;;;;10.13;3.63;;;9.20;65.50;;;;;;6213836;28;20076;-71
2022/02/16 09:03:24;;;;;;;5.78;2.83;;;9.30;65.60;;;;;;6219950;28;20094;-71
2022/02/16 09:06:25;;;;;;;9.13;2.95;;;9.30;65.60;;;;;;6217732;28;20034;-71
2022/02/16 09:09:26;;;;;;;3.63;2.10;;;9.30;65.60;;;;;;6235566;28;20052;-71
2022/02/16 09:12:28;;;;;;;12.82;3.20;;;9.40;65.60;;;;;;6219535;28;20038;-72
2022/02/16 09:15:29;;;;;;;9.10;2.60;;;9.40;65.60;;;;;;6219081;28;20375;-72
2022/02/16 09:18:31;;;;;;;8.23;2.80;;;9.40;65.50;;;;;;6219941;28;20124;-70
2022/02/16 09:21:32;;;;;;;7.80;3.60;;;9.30;65.40;;;;;;6218338;28;20054;-71
2022/02/16 09:24:33;;;;;;;6.60;3.17;;;9.40;65.50;;;;;;6220036;28;20061;-70
2022/02/16 09:27:34;;;;;;;7.72;2.78;;;9.40;65.60;;;;;;6219085;28;20042;-70
2022/02/16 09:30:35;;;;;;;9.43;3.55;;;9.40;65.70;;;;;;6234314;28;20042;-71
2022/02/16 09:33:36;;;;;;;7.05;2.85;;;9.40;65.80;;;;;;6219267;28;20045;-70
2022/02/16 09:41:01;;;;;;;7.97;3.28;;;9.50;65.70;;;;;;6224859;28;20038;-70
2022/02/16 09:44:03;;;;;;;5.00;2.80;;;9.50;65.70;;;;;;6227357;28;20056;-70
2022/02/16 09:47:05;;;;;;;12.88;3.63;;;9.60;65.70;;;;;;6244041;28;20121;-70
2022/02/16 09:50:07;;;;;;;7.90;3.50;;;9.60;65.60;;;;;;6243914;28;20459;-71
2022/02/16 09:53:13;;;;;;;6.97;3.08;;;9.60;65.50;;;;;;6243537;28;20029;-71
2022/02/16 09:56:20;;;;;;;15.02;6.22;;;9.60;65.50;;;;;;6243486;28;20049;-71
2022/02/16 09:59:21;;;;;;;18.98;7.70;;;9.60;65.60;;;;;;6205247;28;20156;-72
2022/02/16 10:02:34;;;;;;;8.70;3.50;;;9.60;65.50;;;;;;6209397;28;20459;-72
2022/02/16 10:05:36;;;;;;;13.75;4.85;;;9.60;65.70;;;;;;6228111;28;20112;-71
2022/02/16 10:08:44;;;;;;;7.35;3.65;;;9.60;65.70;;;;;;6226464;28;20034;-72
2022/02/16 10:11:54;;;;;;;16.30;5.35;;;9.60;65.70;;;;;;6226942;28;20037;-70
2022/02/16 10:14:55;;;;;;;26.08;9.13;;;9.70;65.90;;;;;;6207056;28;20033;-71
2022/02/16 10:18:13;;;;;;;33.47;9.70;;;9.70;65.80;;;;;;6210307;28;20029;-71
2022/02/16 10:21:13;;;;;;;53.25;20.88;;;9.70;65.90;;;;;;6209391;28;20042;-71
2022/02/16 10:24:22;;;;;;;29.00;11.05;;;9.70;66.00;;;;;;6215171;28;20096;-71
2022/02/16 10:27:23;;;;;;;17.35;5.55;;;9.70;66.10;;;;;;6202226;28;20034;-70
2022/02/16 10:30:23;;;;;;;8.32;4.18;;;9.70;66.30;;;;;;6202782;28;20157;-71
2022/02/16 10:33:39;;;;;;;11.70;4.70;;;9.60;66.30;;;;;;6217755;28;20041;-71
2022/02/16 10:36:40;;;;;;;31.20;9.70;;;9.60;66.40;;;;;;6225342;28;20057;-72
2022/02/16 10:39:41;;;;;;;15.77;5.70;;;9.60;66.80;;;;;;6224750;28;20350;-71
2022/02/16 10:42:59;;;;;;;14.30;5.60;;;9.60;67.00;;;;;;6225617;28;20140;-72
2022/02/16 10:46:00;;;;;;;9.00;4.03;;;9.60;66.80;;;;;;6205821;28;20080;-72
2022/02/16 10:49:10;;;;;;;15.35;4.78;;;9.60;66.80;;;;;;6224412;28;20030;-71
2022/02/16 10:52:20;;;;;;;9.93;4.93;;;9.60;66.90;;;;;;6223738;28;20472;-71
2022/02/16 10:55:36;;;;;;;27.13;9.25;;;9.60;67.00;;;;;;6223865;28;20081;-72
2022/02/16 10:58:38;;;;;;;22.63;10.02;;;9.60;67.10;;;;;;6224383;28;20478;-72
2022/02/16 11:01:41;;;;;;;16.60;8.15;;;9.60;67.10;;;;;;6222190;28;20033;-71
2022/02/16 11:04:46;;;;;;;24.23;9.85;;;9.60;67.20;;;;;;6235839;28;20030;-71
2022/02/16 11:07:47;;;;;;;21.40;7.60;;;9.70;67.40;;;;;;6222944;28;20029;-71
2022/02/16 11:10:49;;;;;;;28.23;12.45;;;9.70;67.40;;;;;;6223263;28;20087;-70
2022/02/16 11:13:51;;;;;;;27.77;12.68;;;9.80;67.30;;;;;;6223343;28;20457;-72
2022/02/16 11:16:53;;;;;;;18.83;7.50;;;9.80;67.20;;;;;;6224584;28;20371;-72
2022/02/16 11:20:19;;;;;;;41.05;16.13;;;9.90;67.20;;;;;;6223268;28;20077;-73
2022/02/16 11:23:42;;;;;;;22.15;9.30;;;10.00;67.10;;;;;;6244402;28;23228;-70
2022/02/16 11:26:48;;;;;;;9.55;4.35;;;10.00;67.00;;;;;;6227395;28;20042;-71
2022/02/16 11:29:49;;;;;;;15.10;6.70;;;10.00;66.70;;;;;;6227852;28;20470;-71
2022/02/16 11:32:50;;;;;;;16.42;6.60;;;9.90;66.40;;;;;;6216359;28;20088;-70
2022/02/16 11:35:55;;;;;;;13.55;6.38;;;9.90;66.40;;;;;;6218713;28;20037;-72
2022/02/16 11:38:56;;;;;;;61.95;23.70;;;9.80;66.70;;;;;;6193673;28;20443;-71
2022/02/16 11:41:57;;;;;;;54.28;19.63;;;9.80;66.80;;;;;;6227602;28;20075;-71
2022/02/16 11:45:02;;;;;;;18.55;8.10;;;9.80;66.90;;;;;;6244083;28;20061;-72
2022/02/16 11:48:04;;;;;;;29.02;10.70;;;9.90;66.80;;;;;;6227384;28;20052;-71
2022/02/16 11:51:24;;;;;;;20.83;10.15;;;10.00;66.70;;;;;;6227070;28;20425;-70
2022/02/16 11:54:43;;;;;;;26.48;9.73;;;10.00;66.60;;;;;;6242846;28;20045;-71
2022/02/16 11:58:13;;;;;;;15.13;6.05;;;10.10;66.50;;;;;;6242751;28;20159;-71
2022/02/16 12:01:17;;;;;;;20.63;8.35;;;10.20;66.70;;;;;;6222761;28;20049;-71
2022/02/16 12:04:30;;;;;;;15.27;7.72;;;10.20;66.50;;;;;;6235982;28;20034;-71
2022/02/16 12:07:32;;;;;;;11.30;6.07;;;10.40;66.50;;;;;;6201884;28;20039;-71
2022/02/16 12:10:43;;;;;;;9.82;4.95;;;10.40;66.20;;;;;;6197079;28;20053;-70
2022/02/16 12:14:18;;;;;;;7.65;4.25;;;10.50;65.90;;;;;;6195332;28;20108;-71
2022/02/16 12:17:50;;;;;;;8.88;4.43;;;10.60;65.60;;;;;;6106029;29;20036;-71
2022/02/16 12:20:52;;;;;;;9.75;3.85;;;10.50;65.20;;;;;;6144377;28;20047;-72
2022/02/16 12:23:59;;;;;;;11.10;4.05;;;10.50;65.10;;;;;;6152909;28;20043;-71
2022/02/16 12:27:01;;;;;;;11.30;5.22;;;10.50;65.60;;;;;;6114358;29;20127;-72
2022/02/16 12:30:02;;;;;;;11.15;3.47;;;10.50;65.70;;;;;;6122792;29;20032;-71
2022/02/16 12:33:20;;;;;;;11.65;5.38;;;10.60;65.50;;;;;;6123508;28;20039;-71
2022/02/16 12:36:22;;;;;;;11.93;4.72;;;10.60;65.40;;;;;;6137462;28;20047;-71
2022/02/16 12:39:23;;;;;;;11.23;4.22;;;10.60;65.40;;;;;;6134615;28;20087;-71
2022/02/16 12:42:30;;;;;;;12.60;4.80;;;10.60;65.50;;;;;;6129193;29;20027;-71
2022/02/16 12:45:31;;;;;;;19.35;5.25;;;10.70;65.60;;;;;;6119947;29;20039;-71
2022/02/16 12:48:32;;;;;;;9.18;4.00;;;10.70;65.40;;;;;;6129560;29;20045;-71
2022/02/16 12:51:40;;;;;;;7.78;3.08;;;10.70;65.50;;;;;;6145414;29;20463;-70
2022/02/16 12:54:46;;;;;;;4.95;2.97;;;10.70;65.40;;;;;;6214845;28;20034;-71
2022/02/16 12:58:02;;;;;;;7.55;3.03;;;10.70;65.20;;;;;;6220378;28;20045;-70
2022/02/16 13:01:03;;;;;;;7.25;3.70;;;10.70;65.30;;;;;;6218665;28;20042;-70
2022/02/16 13:04:05;;;;;;;9.43;3.05;;;10.80;65.50;;;;;;6194971;28;20087;-70
2022/02/16 13:07:06;;;;;;;9.68;3.60;;;10.90;65.20;;;;;;6202583;28;20129;-71
2022/02/16 13:10:09;;;;;;;7.20;4.45;;;10.90;64.90;;;;;;6219706;28;20034;-72
2022/02/16 13:13:22;;;;;;;15.07;6.22;;;10.90;64.80;;;;;;6220195;28;20045;-71
2022/02/16 13:16:23;;;;;;;10.88;4.82;;;10.90;65.00;;;;;;6219610;28;20038;-71
2022/02/16 13:19:44;;;;;;;9.00;4.85;;;11.00;64.90;;;;;;6218492;28;20058;-71
2022/02/16 13:22:54;;;;;;;20.98;6.93;;;11.20;64.80;;;;;;6217724;28;20042;-71
2022/02/16 13:26:07;;;;;;;16.92;7.57;;;11.20;64.70;;;;;;6219926;28;20122;-70
2022/02/16 13:29:12;;;;;;;8.98;3.45;;;11.30;64.50;;;;;;6234716;28;20033;-71
2022/02/16 13:32:35;;;;;;;10.63;3.95;;;11.30;64.30;;;;;;6218062;28;20065;-72
2022/02/16 13:35:36;;;;;;;5.63;3.08;;;11.30;64.20;;;;;;6234510;28;20034;-71
2022/02/16 13:38:37;;;;;;;5.88;2.90;;;11.40;64.30;;;;;;6217997;28;20113;-71
2022/02/16 13:41:54;;;;;;;8.18;3.35;;;11.40;64.30;;;;;;6219396;28;20117;-72
2022/02/16 13:44:57;;;;;;;6.40;3.28;;;11.50;64.20;;;;;;6201806;28;20034;-71
2022/02/16 13:47:58;;;;;;;7.47;3.75;;;11.60;63.90;;;;;;6219861;28;20034;-71
2022/02/16 13:51:08;;;;;;;10.68;4.20;;;11.70;63.70;;;;;;6234699;28;20041;-70
2022/02/16 13:54:18;;;;;;;7.50;3.70;;;11.70;63.70;;;;;;6217658;28;20125;-70
2022/02/16 13:58:04;;;;;;;5.50;3.33;;;11.70;63.60;;;;;;6218415;28;20038;-71
2022/02/16 14:01:19;;;;;;;7.25;2.45;;;11.80;63.50;;;;;;6209081;28;20491;-72
2022/02/16 14:04:20;;;;;;;8.70;4.78;;;11.80;63.20;;;;;;6215143;28;20129;-70
2022/02/16 14:07:22;;;;;;;6.63;3.33;;;11.80;63.10;;;;;;6217881;28;20422;-70
2022/02/16 14:10:23;;;;;;;8.90;4.07;;;11.80;63.00;;;;;;6219570;28;20363;-71
2022/02/16 14:13:24;;;;;;;6.15;3.35;;;11.70;63.10;;;;;;6218989;28;20350;-71
2022/02/16 14:16:26;;;;;;;5.78;3.13;;;11.70;63.30;;;;;;6202956;28;20042;-70
2022/02/16 14:19:27;;;;;;;5.40;3.00;;;11.60;63.30;;;;;;6194751;28;20104;-70
2022/02/16 14:22:27;;;;;;;6.75;3.00;;;11.50;63.20;;;;;;6197376;28;20038;-70
2022/02/16 14:25:30;;;;;;;7.60;3.53;;;11.50;63.60;;;;;;6204348;28;20029;-70
2022/02/16 14:28:31;;;;;;;12.27;3.60;;;11.50;63.80;;;;;;6238856;28;20566;-70
2022/02/16 14:31:32;;;;;;;6.88;2.97;;;11.50;64.00;;;;;;6221466;28;20041;-70
2022/02/16 14:34:34;;;;;;;10.05;3.17;;;11.40;64.10;;;;;;6205536;28;20041;-71
2022/02/16 14:37:47;;;;;;;5.13;2.97;;;11.40;64.20;;;;;;6223361;28;20034;-71
2022/02/16 14:40:49;;;;;;;6.78;3.70;;;11.30;64.30;;;;;;6220938;28;20042;-71
2022/02/16 14:43:51;;;;;;;5.72;3.08;;;11.40;64.70;;;;;;6222191;28;20030;-72
2022/02/16 14:46:51;;;;;;;5.70;3.42;;;11.40;64.70;;;;;;6238015;28;20076;-71
2022/02/16 14:49:52;;;;;;;23.33;9.65;;;11.40;64.70;;;;;;6238354;28;20033;-72
2022/02/16 14:52:54;;;;;;;24.92;9.10;;;11.40;64.90;;;;;;6217605;28;20033;-70
2022/02/16 14:55:56;;;;;;;19.35;8.07;;;11.40;65.00;;;;;;6231753;28;20037;-70
2022/02/16 14:58:57;;;;;;;24.33;10.15;;;11.50;64.90;;;;;;6204974;28;20105;-71
2022/02/16 15:02:04;;;;;;;40.05;16.27;;;11.50;64.90;;;;;;6221912;28;20127;-70
2022/02/16 15:05:05;;;;;;;23.77;10.45;;;11.50;64.90;;;;;;6220135;28;20074;-71
2022/02/16 15:08:06;;;;;;;12.00;5.82;;;11.50;64.80;;;;;;6222423;28;20438;-70
2022/02/16 15:11:07;;;;;;;8.77;4.20;;;11.50;64.70;;;;;;6222653;28;20469;-72
2022/02/16 15:14:08;;;;;;;12.15;4.30;;;11.50;64.70;;;;;;6222617;28;20083;-71
2022/02/16 15:17:41;;;;;;;8.38;3.42;;;11.50;64.80;;;;;;6221793;28;20045;-71
2022/02/16 15:20:43;;;;;;;10.10;3.88;;;11.40;64.90;;;;;;6195406;28;20108;-71
2022/02/16 15:23:44;;;;;;;9.57;4.05;;;11.40;65.10;;;;;;6195969;28;20042;-71
2022/02/16 15:26:45;;;;;;;17.05;6.80;;;11.30;65.40;;;;;;6211704;28;20134;-72
2022/02/16 15:29:46;;;;;;;9.50;4.32;;;11.20;65.70;;;;;;6197000;28;20035;-71
2022/02/16 15:32:47;;;;;;;6.93;3.38;;;11.10;66.10;;;;;;6208399;28;20049;-72
2022/02/16 15:35:48;;;;;;;5.82;3.35;;;11.10;66.60;;;;;;6222244;28;20030;-70
2022/02/16 15:38:49;;;;;;;8.15;3.95;;;11.00;67.00;;;;;;6220506;28;20104;-72
2022/02/16 15:41:51;;;;;;;11.60;3.97;;;11.00;67.30;;;;;;6220690;28;20490;-73
2022/02/16 15:44:53;;;;;;;7.90;3.58;;;11.00;67.60;;;;;;6218556;28;20052;-71
2022/02/16 15:47:53;;;;;;;10.10;3.88;;;11.00;67.70;;;;;;6220508;28;20045;-71
2022/02/16 15:50:54;;;;;;;9.02;4.10;;;11.00;67.90;;;;;;6220861;28;20340;-71
2022/02/16 15:53:55;;;;;;;8.18;4.43;;;11.00;68.10;;;;;;6221953;28;20398;-71
2022/02/16 15:57:33;;;;;;;11.18;5.85;;;11.00;68.20;;;;;;6219728;28;20364;-71
2022/02/16 16:00:34;;;;;;;12.25;5.10;;;11.00;68.20;;;;;;6218946;28;20072;-71
2022/02/16 16:03:35;;;;;;;10.00;4.53;;;11.00;68.20;;;;;;6217883;28;20354;-70
2022/02/16 16:06:39;;;;;;;9.52;4.22;;;11.00;68.30;;;;;;6218780;28;20034;-71
2022/02/16 16:09:40;;;;;;;21.05;8.25;;;11.00;68.40;;;;;;6220089;28;20049;-72
2022/02/16 16:12:42;;;;;;;7.80;3.92;;;11.00;68.40;;;;;;6220083;28;20038;-71